x

Virginia Beach 64 Nm East Of Virginia Beach, Va (44014) Wave Buoy

7:50 - Mon 1st Sep 2014 All times are EDT. -4 hours from GMT.

  • Sig Wave height 3.0ft
  • Swell Direction
  • Peak Period 8s
  • Average Period 5s
  • Wind
    18mph, 20mph gusts
  • Sea Temp 78°f
  • Ar Temp 80°f
  • Sea Pressure 1016.4mb
  • Virginia Beach 64 Nm East Of Virginia Beach, Va
  • Virginia Beach 64 Nm East Of Virginia Beach, Va

More Historic Weather Station data

Upgrade to MSW Pro to gain access to the past 30 days of data for over 8000 Wavebouys and Weather Stations around the globe.

Join Pro

Comparision Forecast

View Surf forecast
   
Seg 09/01 7:50 3ft 8s 5s 18 20 mph 1016.4mb 78f 80f
6:50 2.5ft 11s 4s 16 18 mph 1016mb 78f 79f
5:50 2.5ft 8s 4s 16 18 mph 1016.3mb 78f 79f
4:50 3ft 10s 5s 16 18 mph 1016.3mb 78f 79f
3:50 2.5ft 9s 5s 13 16 mph 1016.5mb 78f 79f
2:50 2.5ft 8s 5s 11 13 mph 1016.9mb 78f 79f
1:50 2.5ft 8s 5s 11 13 mph 1017.5mb 78f 79f
12:50 2.5ft 9s 5s 11 13 mph 1017.7mb 78f 78f
11:50 2.5ft 9s 5s 11
mph
1018.2mb 77f 78f
10:50 2.5ft 9s 5s 11 13 mph 1018.5mb 77f 78f
9:50 2.5ft 8s 5s 11 13 mph 1018.7mb 77f 78f
8:50 3ft 8s 5s 11 13 mph 1018.9mb 77f 78f
7:50 2.5ft 10s 5s 11
mph
1018.9mb 76f 78f
6:50 3ft 9s 5s 11 13 mph 1018.6mb 76f 77f
5:50 3.5ft 8s 5s 11 13 mph 1018.5mb 76f 77f
4:50 3ft 9s 5s 13 16 mph 1018mb 77f 78f
3:50 3ft 9s 5s 13 16 mph 1017.9mb 77f 78f
2:50 3ft 9s 5s 13 16 mph 1018.3mb 78f 78f
1:50 3.5ft 9s 5s 16 18 mph 1018.3mb 78f 78f
12:50 3ft 8s 4s 16 18 mph 1019mb 78f 78f
Dom 08/31 11:50 2.5ft 9s 5s 16 18 mph 1019.1mb 78f 78f
10:50 3ft 8s 5s 16 18 mph 1019mb 78f 79f
9:50 3ft 9s 5s 16 18 mph 1019mb 78f 79f
8:50 2.5ft 9s 5s 13 16 mph 1019mb 78f 79f
7:50 2.5ft 9s 5s 16 18 mph 1018.5mb 78f 79f
6:50 2.5ft 9s 5s 16 20 mph 1018.6mb 78f 79f
5:50 2.5ft 9s 5s 13 16 mph 1018.9mb 79f 79f
4:50 2.5ft 9s 5s 13 16 mph 1019mb 79f 79f
3:50 2.5ft 9s 6s 16 18 mph 1019.2mb 79f 79f
2:50 2.5ft 10s 5s 13
mph
1019.9mb 79f 78f
1:50 3ft 10s 6s 11 13 mph 1020.4mb 78f 78f
12:50 2.5ft 9s 6s 9
mph
1020.8mb 78f 78f
11:50 2.5ft 10s 6s 9 11 mph 1021.3mb 78f 78f
10:50 2.5ft 10s 5s 7
mph
1021.8mb 78f 78f
9:50 2.5ft 9s 6s 7 9 mph 1022.2mb 77f 77f
8:50 2.5ft 8s 6s 4 7 mph 1022.2mb 77f 77f
7:50 2.5ft 10s 6s 7
mph
1022.2mb 77f 77f
6:50 2.5ft 7s 6s 7
mph
1022.1mb 77f 77f
5:50 2.5ft 7s 6s 7 9 mph 1021.7mb 76f 77f
4:50 2.5ft 8s 6s 7 9 mph 1021.4mb 76f 77f
3:50 2.5ft 7s 6s 7 9 mph 1021.5mb 78f 77f
2:50 2.5ft 8s 6s 9 11 mph 1021.7mb 78f 77f
1:50 2.5ft 8s 6s 9 11 mph 1022mb 78f 78f
12:50 2.5ft 8s 6s 11
mph
1022mb 78f 78f
Sáb 08/30 11:50 2.5ft 8s 5s 9 11 mph 1021.7mb 78f 78f
10:50 2.5ft 8s 5s 7 9 mph 1021.7mb 78f 78f
9:50 2.5ft 8s 5s 9
mph
1021.7mb 78f 78f
8:50 2.5ft 8s 5s 9
mph
1021.5mb 78f 78f
7:50 2.5ft 8s 5s 9 11 mph 1021.2mb 78f 78f
6:50 2.5ft 8s 6s 9 11 mph 1021.3mb 78f 78f
5:50 2.5ft 8s 5s 9 11 mph 1021.6mb 78f 78f
4:50 2.5ft 7s 6s 9 11 mph 1021.8mb 78f 78f
3:50 3ft 8s 6s 9 11 mph 1021.9mb 78f 78f
2:50 2.5ft 8s 6s 11
mph
1022.5mb 78f 78f
1:50 3ft 8s 6s 11
mph
1023.1mb 78f 77f
12:50 2.5ft 7s 5s 11
mph
1023.4mb 78f 77f
11:50 3ft 8s 6s 11 13 mph 1023.7mb 78f 77f
10:50 3ft 7s 5s 11
mph
1024mb 77f 77f
9:50 2.5ft 8s 5s 11 13 mph 1023.8mb 78f 76f
8:50 2.5ft 7s 5s 11 13 mph 1023.4mb 78f 76f
7:50 2.5ft 8s 5s 11 13 mph 1023.2mb 78f 76f
6:50 3ft 7s 6s 11
mph
1023mb 76f 76f
5:50 2.5ft 7s 6s 11
mph
1022.5mb 76f 76f
4:50 2.5ft 8s 6s 13 16 mph 1022.2mb 76f 76f
3:50 2.5ft 8s 6s 9 11 mph 1022.4mb 76f 76f
2:50 2.5ft 8s 6s 9 11 mph 1022.3mb 76f 76f
1:50 2.5ft 8s 6s 9
mph
1022.6mb 76f 76f
12:50 2.5ft 8s 6s 9 11 mph 1022.6mb 76f 76f
Sex 08/29 11:50 2.5ft 8s 5s 9 11 mph 1022.3mb 76f 76f
10:50 2.5ft 8s 5s 9 11 mph 1022.1mb 76f 75f
9:50 3ft 8s 5s 9 11 mph 1022.1mb 77f 76f
8:50 3ft 8s 5s 11
mph
1021.4mb 77f 76f
7:50 3.5ft 9s 5s 11 13 mph 1021.1mb 76f 76f
6:50 3.5ft 8s 5s 11 13 mph 1021.1mb 76f 76f
5:50 3.5ft 9s 5s 9 11 mph 1020.9mb 76f 76f
4:50 3.5ft 9s 5s 11 13 mph 1020.2mb 76f 76f
3:50 3.5ft 9s 5s 11 13 mph 1020.2mb 76f 76f
2:50 3.5ft 8s 6s 9 11 mph 1020.7mb 76f 76f
1:50 3.5ft 9s  -  9 11 mph 1020.8mb 76f 76f
12:50 3.5ft 9s  -  9 11 mph 1020.7mb 76f 76f
11:50 3.5ft 10s  -  11 13 mph 1020.6mb 76f 76f
10:50 4ft 8s  -  9 11 mph 1020.3mb 77f 76f
9:50 4ft 9s  -  9 11 mph 1020.1mb 76f 76f
8:50 4ft 9s  -  11
mph
1019.7mb 75f 76f
7:50 4.5ft 8s  -  9 11 mph 1019.4mb 75f 76f
6:50 4ft 9s  -  11 13 mph 1018.7mb 75f 76f
5:50 4.5ft 9s  -  7 9 mph 1018mb 75f 76f
4:50 4.5ft 9s  -  9 11 mph 1017.6mb 75f 76f
3:50 4ft 9s  -  7 9 mph 1017.5mb 75f 76f
2:50 4ft 9s  -  7 9 mph 1017.5mb 75f 76f
1:50 4.5ft 9s  -  9
mph
1017.5mb 75f 76f